sensor_id;sensor_type;location;lat;lon;timestamp;pressure;altitude;pressure_sealevel;temperature;humidity
37610;BME280;23457;51.966;8.230;2023-12-07T00:00:38;101178.63;;;2.80;100.00
37610;BME280;23457;51.966;8.230;2023-12-07T00:03:04;101178.81;;;2.83;100.00
37610;BME280;23457;51.966;8.230;2023-12-07T00:05:33;101179.50;;;2.81;100.00
37610;BME280;23457;51.966;8.230;2023-12-07T00:08:00;101181.84;;;2.76;100.00
37610;BME280;23457;51.966;8.230;2023-12-07T00:10:27;101183.22;;;2.55;100.00
37610;BME280;23457;51.966;8.230;2023-12-07T00:12:53;101183.28;;;2.71;100.00
37610;BME280;23457;51.966;8.230;2023-12-07T00:15:20;101189.78;;;2.65;100.00
37610;BME280;23457;51.966;8.230;2023-12-07T00:17:47;101189.09;;;2.53;100.00
37610;BME280;23457;51.966;8.230;2023-12-07T00:20:13;101191.47;;;2.49;100.00
37610;BME280;23457;51.966;8.230;2023-12-07T00:22:40;101200.38;;;2.56;100.00
37610;BME280;23457;51.966;8.230;2023-12-07T00:25:08;101208.09;;;2.56;100.00
37610;BME280;23457;51.966;8.230;2023-12-07T00:27:35;101210.94;;;2.46;100.00
37610;BME280;23457;51.966;8.230;2023-12-07T00:30:02;101207.50;;;2.45;100.00
37610;BME280;23457;51.966;8.230;2023-12-07T00:32:29;101211.50;;;2.40;100.00
37610;BME280;23457;51.966;8.230;2023-12-07T00:35:00;101219.19;;;2.40;100.00
37610;BME280;23457;51.966;8.230;2023-12-07T00:37:27;101218.13;;;2.51;100.00
37610;BME280;23457;51.966;8.230;2023-12-07T00:39:53;101217.69;;;2.29;100.00
37610;BME280;23457;51.966;8.230;2023-12-07T00:42:20;101218.75;;;2.33;100.00
37610;BME280;23457;51.966;8.230;2023-12-07T00:44:47;101216.88;;;2.45;100.00
37610;BME280;23457;51.966;8.230;2023-12-07T00:47:14;101221.75;;;2.40;100.00
37610;BME280;23457;51.966;8.230;2023-12-07T00:49:41;101225.28;;;2.42;100.00
37610;BME280;23457;51.966;8.230;2023-12-07T00:52:07;101229.38;;;2.24;100.00
37610;BME280;23457;51.966;8.230;2023-12-07T00:54:34;101223.00;;;2.32;100.00
37610;BME280;23457;51.966;8.230;2023-12-07T00:57:01;101222.56;;;2.39;100.00
37610;BME280;23457;51.966;8.230;2023-12-07T00:59:27;101229.56;;;2.12;100.00
37610;BME280;23457;51.966;8.230;2023-12-07T01:02:00;101234.13;;;2.18;100.00
37610;BME280;23457;51.966;8.230;2023-12-07T01:04:28;101238.94;;;2.27;100.00
37610;BME280;23457;51.966;8.230;2023-12-07T01:06:55;101236.00;;;2.06;100.00
37610;BME280;23457;51.966;8.230;2023-12-07T01:09:22;101241.22;;;2.07;100.00
37610;BME280;23457;51.966;8.230;2023-12-07T01:11:49;101239.44;;;2.21;100.00
37610;BME280;23457;51.966;8.230;2023-12-07T01:14:17;101238.19;;;2.29;100.00
37610;BME280;23457;51.966;8.230;2023-12-07T01:16:44;101232.53;;;2.35;100.00
37610;BME280;23457;51.966;8.230;2023-12-07T01:19:11;101231.56;;;2.33;100.00
37610;BME280;23457;51.966;8.230;2023-12-07T01:21:41;101236.00;;;2.06;100.00
37610;BME280;23457;51.966;8.230;2023-12-07T01:24:08;101237.56;;;2.04;100.00
37610;BME280;23457;51.966;8.230;2023-12-07T01:26:42;101242.81;;;2.05;100.00
37610;BME280;23457;51.966;8.230;2023-12-07T01:29:08;101241.41;;;2.10;100.00
37610;BME280;23457;51.966;8.230;2023-12-07T01:31:35;101243.25;;;1.98;100.00
37610;BME280;23457;51.966;8.230;2023-12-07T01:34:02;101253.06;;;2.05;100.00
37610;BME280;23457;51.966;8.230;2023-12-07T01:36:29;101248.09;;;1.94;100.00
37610;BME280;23457;51.966;8.230;2023-12-07T01:38:55;101251.28;;;1.90;100.00
37610;BME280;23457;51.966;8.230;2023-12-07T01:41:22;101256.41;;;1.90;100.00
37610;BME280;23457;51.966;8.230;2023-12-07T01:43:49;101255.50;;;1.74;100.00
37610;BME280;23457;51.966;8.230;2023-12-07T01:46:16;101259.22;;;1.79;100.00
37610;BME280;23457;51.966;8.230;2023-12-07T01:48:44;101256.22;;;1.87;100.00
37610;BME280;23457;51.966;8.230;2023-12-07T01:51:11;101258.69;;;1.85;100.00
37610;BME280;23457;51.966;8.230;2023-12-07T01:53:39;101261.44;;;2.03;100.00
37610;BME280;23457;51.966;8.230;2023-12-07T01:56:06;101268.97;;;2.00;100.00
37610;BME280;23457;51.966;8.230;2023-12-07T01:58:34;101268.53;;;2.07;100.00
37610;BME280;23457;51.966;8.230;2023-12-07T02:01:02;101270.03;;;1.89;100.00
37610;BME280;23457;51.966;8.230;2023-12-07T02:03:31;101276.03;;;1.89;100.00
37610;BME280;23457;51.966;8.230;2023-12-07T02:05:58;101273.91;;;1.97;100.00
37610;BME280;23457;51.966;8.230;2023-12-07T02:08:26;101275.31;;;1.92;100.00
37610;BME280;23457;51.966;8.230;2023-12-07T02:10:53;101272.16;;;1.96;100.00
37610;BME280;23457;51.966;8.230;2023-12-07T02:13:20;101271.53;;;2.00;100.00
37610;BME280;23457;51.966;8.230;2023-12-07T02:15:48;101272.66;;;1.90;100.00
37610;BME280;23457;51.966;8.230;2023-12-07T02:18:36;101270.56;;;1.98;100.00
37610;BME280;23457;51.966;8.230;2023-12-07T02:21:14;101277.47;;;1.99;100.00
37610;BME280;23457;51.966;8.230;2023-12-07T02:23:42;101275.56;;;1.82;100.00
37610;BME280;23457;51.966;8.230;2023-12-07T02:26:19;101289.97;;;1.79;100.00
37610;BME280;23457;51.966;8.230;2023-12-07T02:28:47;101285.22;;;1.86;100.00
37610;BME280;23457;51.966;8.230;2023-12-07T02:31:13;101280.88;;;1.85;100.00
37610;BME280;23457;51.966;8.230;2023-12-07T02:33:40;101279.31;;;1.87;100.00
37610;BME280;23457;51.966;8.230;2023-12-07T02:36:07;101279.66;;;1.93;100.00
37610;BME280;23457;51.966;8.230;2023-12-07T02:38:34;101286.00;;;1.85;100.00
37610;BME280;23457;51.966;8.230;2023-12-07T02:41:01;101280.09;;;1.86;100.00
37610;BME280;23457;51.966;8.230;2023-12-07T02:43:28;101291.44;;;1.89;100.00
37610;BME280;23457;51.966;8.230;2023-12-07T02:45:55;101289.09;;;1.94;100.00
37610;BME280;23457;51.966;8.230;2023-12-07T02:48:22;101296.81;;;1.94;100.00
37610;BME280;23457;51.966;8.230;2023-12-07T02:50:49;101292.66;;;1.96;100.00
37610;BME280;23457;51.966;8.230;2023-12-07T02:53:15;101292.06;;;2.00;100.00
37610;BME280;23457;51.966;8.230;2023-12-07T02:55:42;101288.34;;;2.09;100.00
37610;BME280;23457;51.966;8.230;2023-12-07T02:58:09;101286.66;;;2.10;100.00
37610;BME280;23457;51.966;8.230;2023-12-07T03:00:35;101288.34;;;2.09;100.00
37610;BME280;23457;51.966;8.230;2023-12-07T03:03:02;101291.97;;;2.13;100.00
37610;BME280;23457;51.966;8.230;2023-12-07T03:05:29;101293.38;;;2.08;100.00
37610;BME280;23457;51.966;8.230;2023-12-07T03:07:55;101302.75;;;2.07;100.00
37610;BME280;23457;51.966;8.230;2023-12-07T03:10:22;101288.78;;;2.02;100.00
37610;BME280;23457;51.966;8.230;2023-12-07T03:12:49;101292.59;;;2.09;100.00
37610;BME280;23457;51.966;8.230;2023-12-07T03:15:15;101304.50;;;1.94;100.00
37610;BME280;23457;51.966;8.230;2023-12-07T03:17:42;101290.69;;;1.92;100.00
37610;BME280;23457;51.966;8.230;2023-12-07T03:20:10;101287.69;;;1.84;100.00
37610;BME280;23457;51.966;8.230;2023-12-07T03:22:37;101293.88;;;1.88;100.00
37610;BME280;23457;51.966;8.230;2023-12-07T03:25:04;101299.41;;;1.80;100.00
37610;BME280;23457;51.966;8.230;2023-12-07T03:27:31;101302.00;;;1.80;100.00
37610;BME280;23457;51.966;8.230;2023-12-07T03:29:57;101296.31;;;1.71;100.00
37610;BME280;23457;51.966;8.230;2023-12-07T03:32:24;101304.94;;;1.18;100.00
37610;BME280;23457;51.966;8.230;2023-12-07T03:34:51;101309.13;;;1.43;100.00
37610;BME280;23457;51.966;8.230;2023-12-07T03:37:18;101312.09;;;1.36;100.00
37610;BME280;23457;51.966;8.230;2023-12-07T03:39:45;101303.38;;;1.20;100.00
37610;BME280;23457;51.966;8.230;2023-12-07T03:42:11;101307.78;;;1.35;100.00
37610;BME280;23457;51.966;8.230;2023-12-07T03:44:58;101300.69;;;1.31;100.00
37610;BME280;23457;51.966;8.230;2023-12-07T03:47:25;101304.72;;;1.28;100.00
37610;BME280;23457;51.966;8.230;2023-12-07T03:49:51;101314.56;;;1.35;100.00
37610;BME280;23457;51.966;8.230;2023-12-07T03:52:18;101314.97;;;1.15;100.00
37610;BME280;23457;51.966;8.230;2023-12-07T03:54:45;101297.81;;;1.27;100.00
37610;BME280;23457;51.966;8.230;2023-12-07T03:57:11;101301.91;;;1.10;100.00
37610;BME280;23457;51.966;8.230;2023-12-07T03:59:38;101300.44;;;1.14;100.00
37610;BME280;23457;51.966;8.230;2023-12-07T04:02:05;101306.63;;;1.04;100.00
37610;BME280;23457;51.966;8.230;2023-12-07T04:04:31;101310.94;;;1.18;100.00
37610;BME280;23457;51.966;8.230;2023-12-07T04:06:58;101304.38;;;1.08;100.00
37610;BME280;23457;51.966;8.230;2023-12-07T04:09:26;101302.47;;;1.19;100.00
37610;BME280;23457;51.966;8.230;2023-12-07T04:11:53;101298.03;;;1.17;100.00
37610;BME280;23457;51.966;8.230;2023-12-07T04:14:19;101305.44;;;1.25;100.00
37610;BME280;23457;51.966;8.230;2023-12-07T04:16:46;101300.56;;;1.30;100.00
37610;BME280;23457;51.966;8.230;2023-12-07T04:19:12;101301.22;;;1.13;100.00
37610;BME280;23457;51.966;8.230;2023-12-07T04:21:39;101292.75;;;1.14;100.00
37610;BME280;23457;51.966;8.230;2023-12-07T04:24:06;101290.22;;;1.00;100.00
37610;BME280;23457;51.966;8.230;2023-12-07T04:26:32;101299.63;;;1.15;100.00
37610;BME280;23457;51.966;8.230;2023-12-07T04:28:59;101302.38;;;1.18;100.00
37610;BME280;23457;51.966;8.230;2023-12-07T04:31:26;101305.44;;;1.25;100.00
37610;BME280;23457;51.966;8.230;2023-12-07T04:33:52;101299.44;;;1.12;100.00
37610;BME280;23457;51.966;8.230;2023-12-07T04:36:19;101320.41;;;1.06;100.00
37610;BME280;23457;51.966;8.230;2023-12-07T04:38:46;101323.38;;;0.99;100.00
37610;BME280;23457;51.966;8.230;2023-12-07T04:41:12;101316.38;;;1.10;100.00
37610;BME280;23457;51.966;8.230;2023-12-07T04:43:39;101317.50;;;1.28;100.00
37610;BME280;23457;51.966;8.230;2023-12-07T04:46:06;101322.47;;;1.25;100.00
37610;BME280;23457;51.966;8.230;2023-12-07T04:48:33;101321.69;;;1.26;100.00
37610;BME280;23457;51.966;8.230;2023-12-07T04:50:59;101315.72;;;1.40;100.00
37610;BME280;23457;51.966;8.230;2023-12-07T04:53:26;101312.50;;;1.16;100.00
37610;BME280;23457;51.966;8.230;2023-12-07T04:55:53;101321.25;;;1.33;100.00
37610;BME280;23457;51.966;8.230;2023-12-07T04:58:19;101322.84;;;1.31;100.00
37610;BME280;23457;51.966;8.230;2023-12-07T05:00:46;101323.91;;;1.34;100.00
37610;BME280;23457;51.966;8.230;2023-12-07T05:03:13;101309.47;;;1.08;100.00
37610;BME280;23457;51.966;8.230;2023-12-07T05:05:39;101318.25;;;1.25;100.00
37610;BME280;23457;51.966;8.230;2023-12-07T05:08:06;101317.72;;;1.31;100.00
37610;BME280;23457;51.966;8.230;2023-12-07T05:10:33;101322.50;;;1.39;100.00
37610;BME280;23457;51.966;8.230;2023-12-07T05:12:59;101314.56;;;1.35;100.00
37610;BME280;23457;51.966;8.230;2023-12-07T05:15:26;101321.81;;;1.01;100.00
37610;BME280;23457;51.966;8.230;2023-12-07T05:17:54;101326.09;;;1.15;100.00
37610;BME280;23457;51.966;8.230;2023-12-07T05:20:20;101306.91;;;1.22;100.00
37610;BME280;23457;51.966;8.230;2023-12-07T05:22:49;101316.16;;;1.20;100.00
37610;BME280;23457;51.966;8.230;2023-12-07T05:25:16;101317.25;;;1.10;100.00
37610;BME280;23457;51.966;8.230;2023-12-07T05:27:43;101321.19;;;1.05;100.00
37610;BME280;23457;51.966;8.230;2023-12-07T05:30:10;101330.75;;;1.21;100.00
37610;BME280;23457;51.966;8.230;2023-12-07T05:32:40;101318.63;;;1.18;100.00
37610;BME280;23457;51.966;8.230;2023-12-07T05:35:07;101319.41;;;1.17;100.00
37610;BME280;23457;51.966;8.230;2023-12-07T05:37:34;101320.88;;;1.27;100.00
37610;BME280;23457;51.966;8.230;2023-12-07T05:40:01;101325.41;;;1.31;100.00
37610;BME280;23457;51.966;8.230;2023-12-07T05:42:28;101335.28;;;1.25;100.00
37610;BME280;23457;51.966;8.230;2023-12-07T05:44:54;101327.59;;;1.25;100.00
37610;BME280;23457;51.966;8.230;2023-12-07T05:47:21;101338.63;;;1.24;100.00
37610;BME280;23457;51.966;8.230;2023-12-07T05:49:47;101335.28;;;1.12;100.00
37610;BME280;23457;51.966;8.230;2023-12-07T05:52:14;101348.25;;;1.28;100.00
37610;BME280;23457;51.966;8.230;2023-12-07T05:54:41;101330.75;;;1.07;100.00
37610;BME280;23457;51.966;8.230;2023-12-07T05:57:09;101327.59;;;1.12;100.00
37610;BME280;23457;51.966;8.230;2023-12-07T05:59:37;101346.31;;;1.24;100.00
37610;BME280;23457;51.966;8.230;2023-12-07T06:02:08;101337.97;;;1.41;100.00
37610;BME280;23457;51.966;8.230;2023-12-07T06:04:35;101333.47;;;1.37;100.00
37610;BME280;23457;51.966;8.230;2023-12-07T06:07:02;101328.81;;;1.44;100.00
37610;BME280;23457;51.966;8.230;2023-12-07T06:09:29;101335.22;;;1.51;100.00
37610;BME280;23457;51.966;8.230;2023-12-07T06:11:56;101335.63;;;1.44;100.00
37610;BME280;23457;51.966;8.230;2023-12-07T06:14:24;101340.75;;;1.44;100.00
37610;BME280;23457;51.966;8.230;2023-12-07T06:16:53;101349.41;;;1.46;100.00
37610;BME280;23457;51.966;8.230;2023-12-07T06:19:20;101338.94;;;1.56;100.00
37610;BME280;23457;51.966;8.230;2023-12-07T06:21:47;101333.19;;;1.73;100.00
37610;BME280;23457;51.966;8.230;2023-12-07T06:24:14;101340.22;;;1.63;100.00
37610;BME280;23457;51.966;8.230;2023-12-07T06:26:41;101349.69;;;1.64;100.00
37610;BME280;23457;51.966;8.230;2023-12-07T06:29:07;101341.41;;;1.83;100.00
37610;BME280;23457;51.966;8.230;2023-12-07T06:31:34;101350.56;;;1.64;100.00
37610;BME280;23457;51.966;8.230;2023-12-07T06:34:01;101342.78;;;1.77;100.00
37610;BME280;23457;51.966;8.230;2023-12-07T06:36:28;101360.94;;;1.80;100.00
37610;BME280;23457;51.966;8.230;2023-12-07T06:38:54;101359.13;;;1.93;100.00
37610;BME280;23457;51.966;8.230;2023-12-07T06:41:21;101357.91;;;2.01;100.00
37610;BME280;23457;51.966;8.230;2023-12-07T06:43:48;101356.06;;;1.98;100.00
37610;BME280;23457;51.966;8.230;2023-12-07T06:46:14;101357.91;;;2.01;100.00
37610;BME280;23457;51.966;8.230;2023-12-07T06:48:43;101355.50;;;2.04;100.00
37610;BME280;23457;51.966;8.230;2023-12-07T06:51:09;101368.34;;;2.04;100.00
37610;BME280;23457;51.966;8.230;2023-12-07T06:53:36;101372.06;;;2.09;100.00
37610;BME280;23457;51.966;8.230;2023-12-07T06:56:03;101368.34;;;2.04;100.00
37610;BME280;23457;51.966;8.230;2023-12-07T06:58:30;101371.34;;;1.97;100.00
37610;BME280;23457;51.966;8.230;2023-12-07T07:00:57;101374.50;;;1.93;100.00
37610;BME280;23457;51.966;8.230;2023-12-07T07:03:24;101370.41;;;2.09;100.00
37610;BME280;23457;51.966;8.230;2023-12-07T07:05:51;101370.69;;;2.14;100.00
37610;BME280;23457;51.966;8.230;2023-12-07T07:08:18;101369.69;;;2.12;100.00
37610;BME280;23457;51.966;8.230;2023-12-07T07:10:44;101368.34;;;2.04;100.00
37610;BME280;23457;51.966;8.230;2023-12-07T07:13:13;101379.81;;;2.24;100.00
37610;BME280;23457;51.966;8.230;2023-12-07T07:15:43;101370.50;;;2.11;100.00
37610;BME280;23457;51.966;8.230;2023-12-07T07:18:10;101371.22;;;2.23;100.00
37610;BME280;23457;51.966;8.230;2023-12-07T07:20:37;101382.72;;;2.30;100.00
37610;BME280;23457;51.966;8.230;2023-12-07T07:23:04;101377.94;;;2.21;100.00
37610;BME280;23457;51.966;8.230;2023-12-07T07:25:31;101386.75;;;2.11;100.00
37610;BME280;23457;51.966;8.230;2023-12-07T07:27:57;101387.50;;;2.24;100.00
37610;BME280;23457;51.966;8.230;2023-12-07T07:30:24;101392.09;;;2.29;100.00
37610;BME280;23457;51.966;8.230;2023-12-07T07:32:51;101382.72;;;2.30;100.00
37610;BME280;23457;51.966;8.230;2023-12-07T07:35:18;101376.22;;;2.07;100.00
37610;BME280;23457;51.966;8.230;2023-12-07T07:37:44;101373.97;;;2.26;100.00
37610;BME280;23457;51.966;8.230;2023-12-07T07:40:11;101374.19;;;2.16;100.00
37610;BME280;23457;51.966;8.230;2023-12-07T07:42:38;101373.53;;;2.33;100.00
37610;BME280;23457;51.966;8.230;2023-12-07T07:45:09;101374.28;;;2.17;100.00
37610;BME280;23457;51.966;8.230;2023-12-07T07:47:37;101374.38;;;2.19;100.00
37610;BME280;23457;51.966;8.230;2023-12-07T07:50:04;101377.97;;;2.36;100.00
37610;BME280;23457;51.966;8.230;2023-12-07T07:52:33;101384.66;;;2.19;100.00
37610;BME280;23457;51.966;8.230;2023-12-07T07:55:01;101383.78;;;2.33;100.00
37610;BME280;23457;51.966;8.230;2023-12-07T07:57:30;101376.53;;;2.41;100.00
37610;BME280;23457;51.966;8.230;2023-12-07T07:59:57;101375.84;;;2.43;100.00
37610;BME280;23457;51.966;8.230;2023-12-07T08:02:24;101372.50;;;2.59;100.00
37610;BME280;23457;51.966;8.230;2023-12-07T08:04:51;101380.91;;;2.57;100.00
37610;BME280;23457;51.966;8.230;2023-12-07T08:07:20;101382.56;;;2.56;100.00
37610;BME280;23457;51.966;8.230;2023-12-07T08:09:46;101381.44;;;2.08;100.00
37610;BME280;23457;51.966;8.230;2023-12-07T08:12:14;101380.66;;;2.52;100.00
37610;BME280;23457;51.966;8.230;2023-12-07T08:14:41;101390.69;;;2.34;100.00
37610;BME280;23457;51.966;8.230;2023-12-07T08:17:11;101388.03;;;2.33;100.00
37610;BME280;23457;51.966;8.230;2023-12-07T08:19:38;101387.69;;;2.41;100.00
37610;BME280;23457;51.966;8.230;2023-12-07T08:22:04;101385.22;;;2.58;100.00
37610;BME280;23457;51.966;8.230;2023-12-07T08:24:31;101390.88;;;2.37;100.00
37610;BME280;23457;51.966;8.230;2023-12-07T08:26:58;101397.41;;;2.32;100.00
37610;BME280;23457;51.966;8.230;2023-12-07T08:29:24;101401.63;;;2.17;100.00
37610;BME280;23457;51.966;8.230;2023-12-07T08:31:51;101403.22;;;2.15;100.00
37610;BME280;23457;51.966;8.230;2023-12-07T08:34:18;101403.28;;;2.44;100.00
37610;BME280;23457;51.966;8.230;2023-12-07T08:36:48;101392.69;;;2.53;100.00
37610;BME280;23457;51.966;8.230;2023-12-07T08:39:15;101395.50;;;2.58;100.00
37610;BME280;23457;51.966;8.230;2023-12-07T08:41:42;101390.03;;;2.51;100.00
37610;BME280;23457;51.966;8.230;2023-12-07T08:44:08;101391.94;;;2.56;100.00
37610;BME280;23457;51.966;8.230;2023-12-07T08:46:35;101392.59;;;2.51;100.00
37610;BME280;23457;51.966;8.230;2023-12-07T08:49:02;101396.03;;;2.52;100.00
37610;BME280;23457;51.966;8.230;2023-12-07T08:51:29;101400.81;;;2.61;100.00
37610;BME280;23457;51.966;8.230;2023-12-07T08:53:56;101394.00;;;2.46;100.00
37610;BME280;23457;51.966;8.230;2023-12-07T08:56:23;101396.56;;;2.46;100.00
37610;BME280;23457;51.966;8.230;2023-12-07T08:58:49;101406.25;;;2.23;100.00
37610;BME280;23457;51.966;8.230;2023-12-07T09:01:17;101402.72;;;2.35;100.00
37610;BME280;23457;51.966;8.230;2023-12-07T09:03:57;101403.19;;;2.58;100.00
37610;BME280;23457;51.966;8.230;2023-12-07T09:06:24;101394.09;;;2.63;100.00
37610;BME280;23457;51.966;8.230;2023-12-07T09:08:52;101401.63;;;2.60;100.00
37610;BME280;23457;51.966;8.230;2023-12-07T09:11:18;101404.88;;;2.72;100.00
37610;BME280;23457;51.966;8.230;2023-12-07T09:13:45;101397.28;;;2.59;100.00
37610;BME280;23457;51.966;8.230;2023-12-07T09:16:12;101402.59;;;2.62;100.00
37610;BME280;23457;51.966;8.230;2023-12-07T09:18:39;101404.31;;;2.33;100.00
37610;BME280;23457;51.966;8.230;2023-12-07T09:21:06;101405.03;;;2.45;100.00
37610;BME280;23457;51.966;8.230;2023-12-07T09:23:32;101405.41;;;2.66;100.00
37610;BME280;23457;51.966;8.230;2023-12-07T09:25:59;101411.25;;;2.49;100.00
37610;BME280;23457;51.966;8.230;2023-12-07T09:28:26;101404.19;;;2.60;100.00
37610;BME280;23457;51.966;8.230;2023-12-07T09:30:52;101411.44;;;2.67;100.00
37610;BME280;23457;51.966;8.230;2023-12-07T09:33:19;101422.41;;;2.49;100.00
37610;BME280;23457;51.966;8.230;2023-12-07T09:35:47;101421.75;;;2.53;100.00
37610;BME280;23457;51.966;8.230;2023-12-07T09:38:15;101423.63;;;2.56;100.00
37610;BME280;23457;51.966;8.230;2023-12-07T09:40:43;101415.84;;;2.69;100.00
37610;BME280;23457;51.966;8.230;2023-12-07T09:43:09;101416.63;;;2.53;100.00
37610;BME280;23457;51.966;8.230;2023-12-07T09:45:36;101420.81;;;2.51;100.00
37610;BME280;23457;51.966;8.230;2023-12-07T09:48:04;101419.84;;;2.49;100.00
37610;BME280;23457;51.966;8.230;2023-12-07T09:50:31;101419.91;;;2.36;100.00
37610;BME280;23457;51.966;8.230;2023-12-07T09:52:58;101415.31;;;2.60;100.00
37610;BME280;23457;51.966;8.230;2023-12-07T09:55:34;101408.25;;;2.56;100.00
37610;BME280;23457;51.966;8.230;2023-12-07T09:58:04;101415.69;;;2.51;100.00
37610;BME280;23457;51.966;8.230;2023-12-07T10:00:31;101411.28;;;2.64;100.00
37610;BME280;23457;51.966;8.230;2023-12-07T10:02:59;101407.56;;;2.88;100.00
37610;BME280;23457;51.966;8.230;2023-12-07T10:05:26;101404.19;;;2.89;100.00
37610;BME280;23457;51.966;8.230;2023-12-07T10:07:53;101388.97;;;2.63;100.00
37610;BME280;23457;51.966;8.230;2023-12-07T10:10:20;101385.94;;;2.40;100.00
37610;BME280;23457;51.966;8.230;2023-12-07T10:12:55;101384.97;;;2.82;100.00
37610;BME280;23457;51.966;8.230;2023-12-07T10:15:23;101379.56;;;2.93;100.00
37610;BME280;23457;51.966;8.230;2023-12-07T10:17:58;101389.19;;;3.11;100.00
37610;BME280;23457;51.966;8.230;2023-12-07T10:20:28;101386.13;;;3.02;100.00
37610;BME280;23457;51.966;8.230;2023-12-07T10:23:09;101384.69;;;2.93;100.00
37610;BME280;23457;51.966;8.230;2023-12-07T10:25:38;101380.13;;;2.87;100.00
37610;BME280;23457;51.966;8.230;2023-12-07T10:28:05;101384.34;;;3.01;100.00
37610;BME280;23457;51.966;8.230;2023-12-07T10:30:37;101382.22;;;2.79;100.00
37610;BME280;23457;51.966;8.230;2023-12-07T10:33:09;101372.03;;;3.10;100.00
37610;BME280;23457;51.966;8.230;2023-12-07T10:35:39;101372.50;;;3.03;100.00
37610;BME280;23457;51.966;8.230;2023-12-07T10:38:08;101365.38;;;3.14;100.00
37610;BME280;23457;51.966;8.230;2023-12-07T10:40:35;101367.78;;;2.67;100.00
37610;BME280;23457;51.966;8.230;2023-12-07T10:43:04;101353.88;;;2.93;100.00
37610;BME280;23457;51.966;8.230;2023-12-07T10:45:32;101365.53;;;3.17;100.00
37610;BME280;23457;51.966;8.230;2023-12-07T10:48:06;101357.03;;;3.18;100.00
37610;BME280;23457;51.966;8.230;2023-12-07T10:50:45;101357.09;;;3.03;100.00
37610;BME280;23457;51.966;8.230;2023-12-07T10:53:31;101344.97;;;2.86;100.00
37610;BME280;23457;51.966;8.230;2023-12-07T10:56:02;101348.88;;;3.25;100.00
37610;BME280;23457;51.966;8.230;2023-12-07T10:58:34;101344.81;;;3.29;100.00
37610;BME280;23457;51.966;8.230;2023-12-07T11:01:02;101344.88;;;2.84;100.00
37610;BME280;23457;51.966;8.230;2023-12-07T11:03:30;101330.66;;;3.06;100.00
37610;BME280;23457;51.966;8.230;2023-12-07T11:05:58;101334.03;;;3.36;100.00
37610;BME280;23457;51.966;8.230;2023-12-07T11:08:32;101327.16;;;3.51;100.00
37610;BME280;23457;51.966;8.230;2023-12-07T11:11:24;101329.56;;;3.48;100.00
37610;BME280;23457;51.966;8.230;2023-12-07T11:13:59;101328.72;;;3.33;100.00
37610;BME280;23457;51.966;8.230;2023-12-07T11:16:36;101323.06;;;3.38;100.00
37610;BME280;23457;51.966;8.230;2023-12-07T11:19:04;101312.28;;;3.45;100.00
37610;BME280;23457;51.966;8.230;2023-12-07T11:21:38;101307.06;;;3.28;100.00
37610;BME280;23457;51.966;8.230;2023-12-07T11:24:05;101305.44;;;3.30;100.00
37610;BME280;23457;51.966;8.230;2023-12-07T11:26:32;101304.53;;;3.13;100.00
37610;BME280;23457;51.966;8.230;2023-12-07T11:28:59;101298.38;;;3.26;100.00
37610;BME280;23457;51.966;8.230;2023-12-07T11:31:26;101295.84;;;3.42;100.00
37610;BME280;23457;51.966;8.230;2023-12-07T11:33:53;101302.34;;;3.51;100.00
37610;BME280;23457;51.966;8.230;2023-12-07T11:36:20;101306.88;;;3.24;100.00
37610;BME280;23457;51.966;8.230;2023-12-07T11:41:30;101291.50;;;3.57;100.00
37610;BME280;23457;51.966;8.230;2023-12-07T11:43:59;101283.63;;;3.70;100.00
37610;BME280;23457;51.966;8.230;2023-12-07T11:46:26;101275.28;;;3.74;100.00
37610;BME280;23457;51.966;8.230;2023-12-07T11:48:53;101266.78;;;3.75;100.00
37610;BME280;23457;51.966;8.230;2023-12-07T11:51:20;101254.72;;;3.74;100.00
37610;BME280;23457;51.966;8.230;2023-12-07T11:53:47;101267.25;;;3.84;100.00
37610;BME280;23457;51.966;8.230;2023-12-07T11:56:16;101265.81;;;3.89;100.00
37610;BME280;23457;51.966;8.230;2023-12-07T11:58:46;101260.66;;;3.89;100.00
37610;BME280;23457;51.966;8.230;2023-12-07T12:01:13;101265.09;;;3.76;100.00
37610;BME280;23457;51.966;8.230;2023-12-07T12:03:40;101254.63;;;3.89;100.00
37610;BME280;23457;51.966;8.230;2023-12-07T12:06:07;101252.31;;;3.77;100.00
37610;BME280;23457;51.966;8.230;2023-12-07T12:08:36;101247.91;;;4.09;100.00
37610;BME280;23457;51.966;8.230;2023-12-07T12:11:04;101245.59;;;4.31;100.00
37610;BME280;23457;51.966;8.230;2023-12-07T12:13:34;101241.78;;;3.89;100.00
37610;BME280;23457;51.966;8.230;2023-12-07T12:16:01;101231.91;;;4.32;100.00
37610;BME280;23457;51.966;8.230;2023-12-07T12:18:32;101229.53;;;4.19;100.00
37610;BME280;23457;51.966;8.230;2023-12-07T12:21:00;101220.22;;;4.21;100.00
37610;BME280;23457;51.966;8.230;2023-12-07T12:23:27;101214.38;;;4.41;100.00
37610;BME280;23457;51.966;8.230;2023-12-07T12:25:55;101220.53;;;4.62;100.00
37610;BME280;23457;51.966;8.230;2023-12-07T12:28:22;101212.25;;;4.50;100.00
37610;BME280;23457;51.966;8.230;2023-12-07T12:30:50;101206.63;;;4.23;100.00
37610;BME280;23457;51.966;8.230;2023-12-07T12:33:18;101208.84;;;4.51;100.00
37610;BME280;23457;51.966;8.230;2023-12-07T12:35:44;101209.94;;;4.21;100.00
37610;BME280;23457;51.966;8.230;2023-12-07T12:38:12;101207.31;;;4.55;100.00
37610;BME280;23457;51.966;8.230;2023-12-07T12:40:53;101200.31;;;4.35;100.00
37610;BME280;23457;51.966;8.230;2023-12-07T12:43:20;101194.72;;;4.25;100.00
37610;BME280;23457;51.966;8.230;2023-12-07T12:45:48;101197.09;;;4.39;100.00
37610;BME280;23457;51.966;8.230;2023-12-07T12:48:32;101193.13;;;4.63;100.00
37610;BME280;23457;51.966;8.230;2023-12-07T12:51:13;101190.72;;;4.85;100.00
37610;BME280;23457;51.966;8.230;2023-12-07T12:53:46;101177.81;;;4.66;100.00
37610;BME280;23457;51.966;8.230;2023-12-07T12:56:18;101173.66;;;4.69;100.00